LTACUACC

Guest
Details From LTAC - ESENBOGA
To UACC - Astana INTL
Flight Number -
Tags decoded
Created
Modified
Stats Distance 1,721 nm / 3,187 km
Max Altitude 0 ft / 0 m
Waypoints 2
Social Downloads 0
Likes 0
Share VATSIM

Download

Looking for another format? Having issues loading an existing format? Contact us
Advertisement - Login to hide

Notes

Requested: LTAC UACC

Route

LTAC UACC

ID Type Via Altitude Latitude Longitude Leg Dist Tot Dist Heading (true) Name
O LTAC APT - 0 ft / 0 m 40.12828˚ 32.99540˚ - 0 nm - ESENBOGA
O UACC APT - 0 ft / 0 m 51.02218˚ 71.46706˚ 1720 nm 1720 nm 55° / 83° Astana INTL

Altitude Profile

Advertisement - Login to hide

Weather


0- 5 10 15 20 25 30 35+ Temperature / ° C

Clouds and Precipitation
Forecast for 2018-06-25 12:00 UTC. Updated 38 minutes ago

Ground ~20,000 ft ~40,000 ft Winds

LTAC

Details ICAO LTAC (ESB)
Name ESENBOGA
Region Turkey
Timezone Europe/Istanbul (UTC+3.0)
Stats Elevation 3,125 ft / 953 m (AMSL)
Location 40.128285° 32.995403°
Runways 2
Magnetic Variation 5.763° E

METAR

LTAC 250950Z 06009KT 360V100 9999 SCT040 26/12 Q1014 NOSIG

Decode

TAF

Not found

Departure Runways

ID Width Length Bearing (true) Bearing (mag) Surface Threshold Offset Overrun Length
03L 148 ft / 45 m 12,334 ft / 3,760 m 36.19° 30.43° Asphalt 1,148 ft / 350 m 200 ft / 61 m
03R 197 ft / 60 m 12,258 ft / 3,736 m 35.29° 29.53° Asphalt 0 ft / 0 m 200 ft / 61 m
21L 197 ft / 60 m 12,258 ft / 3,736 m 215.31° 209.55° Asphalt 0 ft / 0 m 200 ft / 61 m
21R 148 ft / 45 m 12,334 ft / 3,760 m 216.21° 210.45° Asphalt 0 ft / 0 m 200 ft / 61 m

UACC

Details ICAO UACC (TSE)
Name Astana INTL
Region Kazakhstan and Kyrgyzstan
Timezone Asia/Almaty (UTC+6.0)
Stats Elevation 1,165 ft / 355 m (AMSL)
Location 51.022180° 71.467062°
Runways 1
Magnetic Variation 9.869° E

METAR

UACC 251000Z 35005MPS 320V020 9999 FEW040CB BKN100 23/10 Q1006 R22/0///70 NOSIG RMK QFE723/0965

Decode

TAF

TAF UACC 250500Z 2506/2606 33008MPS 9999 SCT033CB BKN100 TX23/2509Z TN12/2600Z TEMPO 2506/2516 VRB22MPS 2000 TSRA SQ BKN020CB TEMPO 2519/2606 3000 SHRA SCT007 BKN020CB

Decode

Destination Runways

ID Width Length Bearing (true) Bearing (mag) Surface Threshold Offset Overrun Length
04 148 ft / 45 m 11,467 ft / 3,495 m 44.45° 34.58° Asphalt 0 ft / 0 m 0 ft / 0 m
22 148 ft / 45 m 11,467 ft / 3,495 m 224.48° 214.61° Asphalt 0 ft / 0 m 0 ft / 0 m

Approach Navaids

Runway Type Ident Frequency Range Bearing (true) Bearing (mag) Slope Elevation
04 Localiser IMO 109.50 MHz 18 nm / 33 km 44.29° 34.42° - 1,165 ft / 355 m (AMSL)
04 Glidescope IMO 109.50 MHz 10 nm / 19 km 44.46° 34.59° 3.00° 1,165 ft / 355 m (AMSL)
22 Localiser IAK 111.70 MHz 18 nm / 33 km 224.56° 214.70° - 1,165 ft / 355 m (AMSL)
22 Glidescope IAK 111.70 MHz 10 nm / 19 km 224.46° 214.59° 3.00° 1,165 ft / 355 m (AMSL)

Popular Alternatives